sensor_id;sensor_type;location;lat;lon;timestamp;temperature;humidity
16388;DHT22;8303;53.446;9.988;2023-08-06T04:30:33;15.10;99.90
16388;DHT22;8303;53.446;9.988;2023-08-06T04:33:00;15.00;99.90
16388;DHT22;8303;53.446;9.988;2023-08-06T04:35:27;15.00;99.90
16388;DHT22;8303;53.446;9.988;2023-08-06T04:38:02;15.00;99.90
16388;DHT22;8303;53.446;9.988;2023-08-06T04:40:29;15.00;99.90
16388;DHT22;8303;53.446;9.988;2023-08-06T04:42:56;15.00;99.90
16388;DHT22;8303;53.446;9.988;2023-08-06T04:45:22;15.00;99.90
16388;DHT22;8303;53.446;9.988;2023-08-06T04:50:15;15.10;99.90
16388;DHT22;8303;53.446;9.988;2023-08-06T04:52:43;15.10;99.90
16388;DHT22;8303;53.446;9.988;2023-08-06T04:55:11;15.10;99.90
16388;DHT22;8303;53.446;9.988;2023-08-06T04:57:38;15.10;99.90
16388;DHT22;8303;53.446;9.988;2023-08-06T05:00:06;15.20;99.90
16388;DHT22;8303;53.446;9.988;2023-08-06T05:02:33;15.10;99.90
16388;DHT22;8303;53.446;9.988;2023-08-06T05:05:04;15.20;99.90
16388;DHT22;8303;53.446;9.988;2023-08-06T05:07:31;15.20;99.90
16388;DHT22;8303;53.446;9.988;2023-08-06T05:09:58;15.20;99.90
16388;DHT22;8303;53.446;9.988;2023-08-06T05:12:26;15.20;99.90
16388;DHT22;8303;53.446;9.988;2023-08-06T05:14:53;15.20;99.90
16388;DHT22;8303;53.446;9.988;2023-08-06T05:17:22;15.20;99.90
16388;DHT22;8303;53.446;9.988;2023-08-06T05:19:49;15.30;99.90
16388;DHT22;8303;53.446;9.988;2023-08-06T05:22:16;15.30;99.90
16388;DHT22;8303;53.446;9.988;2023-08-06T05:24:43;15.30;99.90
16388;DHT22;8303;53.446;9.988;2023-08-06T05:27:10;15.40;99.90
16388;DHT22;8303;53.446;9.988;2023-08-06T05:29:38;15.40;99.90
16388;DHT22;8303;53.446;9.988;2023-08-06T05:32:08;15.40;99.90
16388;DHT22;8303;53.446;9.988;2023-08-06T05:34:35;15.50;99.90
16388;DHT22;8303;53.446;9.988;2023-08-06T05:37:03;15.50;99.90
16388;DHT22;8303;53.446;9.988;2023-08-06T05:39:30;15.50;99.90
16388;DHT22;8303;53.446;9.988;2023-08-06T05:41:57;15.60;99.90
16388;DHT22;8303;53.446;9.988;2023-08-06T05:44:23;15.60;99.90
16388;DHT22;8303;53.446;9.988;2023-08-06T05:46:52;15.60;91.90
16388;DHT22;8303;53.446;9.988;2023-08-06T05:49:19;15.70;52.90
16388;DHT22;8303;53.446;9.988;2023-08-06T05:51:46;15.70;1.00
16388;DHT22;8303;53.446;9.988;2023-08-06T05:54:13;15.80;1.00
16388;DHT22;8303;53.446;9.988;2023-08-06T05:56:41;15.80;1.00
16388;DHT22;8303;53.446;9.988;2023-08-06T05:59:08;15.80;1.00
16388;DHT22;8303;53.446;9.988;2023-08-06T06:01:35;15.80;1.00
16388;DHT22;8303;53.446;9.988;2023-08-06T06:04:03;15.80;1.00
16388;DHT22;8303;53.446;9.988;2023-08-06T06:06:30;15.80;1.00
16388;DHT22;8303;53.446;9.988;2023-08-06T06:08:57;15.90;1.00
16388;DHT22;8303;53.446;9.988;2023-08-06T06:11:24;15.80;1.00
16388;DHT22;8303;53.446;9.988;2023-08-06T06:13:51;15.90;1.00
16388;DHT22;8303;53.446;9.988;2023-08-06T06:16:18;15.90;1.00
16388;DHT22;8303;53.446;9.988;2023-08-06T06:18:45;15.90;1.00
16388;DHT22;8303;53.446;9.988;2023-08-06T06:21:14;16.10;1.00
16388;DHT22;8303;53.446;9.988;2023-08-06T06:23:41;16.10;1.00
16388;DHT22;8303;53.446;9.988;2023-08-06T06:26:08;16.20;1.00
16388;DHT22;8303;53.446;9.988;2023-08-06T06:28:35;16.30;99.90
16388;DHT22;8303;53.446;9.988;2023-08-06T06:31:02;16.50;99.90
16388;DHT22;8303;53.446;9.988;2023-08-06T06:33:30;16.60;99.90
16388;DHT22;8303;53.446;9.988;2023-08-06T06:35:57;16.60;99.90
16388;DHT22;8303;53.446;9.988;2023-08-06T06:38:25;16.70;1.00
16388;DHT22;8303;53.446;9.988;2023-08-06T06:40:56;16.80;99.90
16388;DHT22;8303;53.446;9.988;2023-08-06T06:43:23;16.80;1.00
16388;DHT22;8303;53.446;9.988;2023-08-06T06:45:52;16.80;24.80
16388;DHT22;8303;53.446;9.988;2023-08-06T06:48:20;16.90;1.00
16388;DHT22;8303;53.446;9.988;2023-08-06T06:50:47;16.70;1.00
16388;DHT22;8303;53.446;9.988;2023-08-06T06:53:15;16.80;1.00
16388;DHT22;8303;53.446;9.988;2023-08-06T06:55:43;16.80;99.90
16388;DHT22;8303;53.446;9.988;2023-08-06T06:58:10;17.00;1.00
16388;DHT22;8303;53.446;9.988;2023-08-06T07:00:37;17.10;1.00
16388;DHT22;8303;53.446;9.988;2023-08-06T07:03:04;17.20;99.90
16388;DHT22;8303;53.446;9.988;2023-08-06T07:05:31;17.20;1.00
16388;DHT22;8303;53.446;9.988;2023-08-06T07:07:59;17.20;1.00
16388;DHT22;8303;53.446;9.988;2023-08-06T07:10:26;17.20;99.90
16388;DHT22;8303;53.446;9.988;2023-08-06T07:12:54;17.30;1.00
16388;DHT22;8303;53.446;9.988;2023-08-06T07:15:21;17.40;99.90
16388;DHT22;8303;53.446;9.988;2023-08-06T07:17:51;17.40;1.00
16388;DHT22;8303;53.446;9.988;2023-08-06T07:20:18;17.30;1.00
16388;DHT22;8303;53.446;9.988;2023-08-06T07:22:45;17.50;99.90
16388;DHT22;8303;53.446;9.988;2023-08-06T07:25:12;17.60;1.00
16388;DHT22;8303;53.446;9.988;2023-08-06T07:27:39;17.70;99.90
16388;DHT22;8303;53.446;9.988;2023-08-06T07:30:08;17.80;99.90
16388;DHT22;8303;53.446;9.988;2023-08-06T07:32:36;17.90;1.00
16388;DHT22;8303;53.446;9.988;2023-08-06T07:35:09;17.90;1.00
16388;DHT22;8303;53.446;9.988;2023-08-06T07:37:38;18.00;1.00
16388;DHT22;8303;53.446;9.988;2023-08-06T07:40:05;18.00;99.90
16388;DHT22;8303;53.446;9.988;2023-08-06T07:42:33;17.90;1.00
16388;DHT22;8303;53.446;9.988;2023-08-06T07:45:02;17.90;1.00
16388;DHT22;8303;53.446;9.988;2023-08-06T07:47:31;17.90;1.00
16388;DHT22;8303;53.446;9.988;2023-08-06T07:49:58;17.90;1.00
16388;DHT22;8303;53.446;9.988;2023-08-06T07:52:25;17.90;1.00
16388;DHT22;8303;53.446;9.988;2023-08-06T07:54:52;17.90;1.00
16388;DHT22;8303;53.446;9.988;2023-08-06T07:57:19;17.90;99.90
16388;DHT22;8303;53.446;9.988;2023-08-06T07:59:46;17.90;99.90
16388;DHT22;8303;53.446;9.988;2023-08-06T08:02:13;17.90;55.10
16388;DHT22;8303;53.446;9.988;2023-08-06T08:04:41;18.00;1.00
16388;DHT22;8303;53.446;9.988;2023-08-06T08:07:10;17.90;1.00
16388;DHT22;8303;53.446;9.988;2023-08-06T08:09:37;18.00;99.90
16388;DHT22;8303;53.446;9.988;2023-08-06T08:12:05;18.20;1.00
16388;DHT22;8303;53.446;9.988;2023-08-06T08:14:32;18.30;1.00
16388;DHT22;8303;53.446;9.988;2023-08-06T08:17:01;18.10;1.00
16388;DHT22;8303;53.446;9.988;2023-08-06T08:19:29;18.10;1.00
16388;DHT22;8303;53.446;9.988;2023-08-06T08:21:57;18.30;1.00
16388;DHT22;8303;53.446;9.988;2023-08-06T08:24:25;18.40;1.00
16388;DHT22;8303;53.446;9.988;2023-08-06T08:26:52;18.70;99.90
16388;DHT22;8303;53.446;9.988;2023-08-06T08:29:20;18.70;1.00
16388;DHT22;8303;53.446;9.988;2023-08-06T08:31:47;18.60;1.00
16388;DHT22;8303;53.446;9.988;2023-08-06T08:34:15;18.70;1.00
16388;DHT22;8303;53.446;9.988;2023-08-06T08:36:42;18.70;1.00
16388;DHT22;8303;53.446;9.988;2023-08-06T08:39:14;18.70;1.00
16388;DHT22;8303;53.446;9.988;2023-08-06T08:41:42;18.50;1.00
16388;DHT22;8303;53.446;9.988;2023-08-06T08:44:10;18.70;99.90
16388;DHT22;8303;53.446;9.988;2023-08-06T08:46:38;19.00;7.20
16388;DHT22;8303;53.446;9.988;2023-08-06T08:49:07;19.10;1.00
16388;DHT22;8303;53.446;9.988;2023-08-06T08:51:34;19.20;99.90
16388;DHT22;8303;53.446;9.988;2023-08-06T08:54:03;19.20;51.90
16388;DHT22;8303;53.446;9.988;2023-08-06T08:56:31;19.10;99.90
16388;DHT22;8303;53.446;9.988;2023-08-06T08:58:58;19.20;99.90
16388;DHT22;8303;53.446;9.988;2023-08-06T09:01:26;19.20;1.00
16388;DHT22;8303;53.446;9.988;2023-08-06T09:03:55;19.10;1.00
16388;DHT22;8303;53.446;9.988;2023-08-06T09:06:23;19.20;1.00
16388;DHT22;8303;53.446;9.988;2023-08-06T09:09:00;19.30;99.90
16388;DHT22;8303;53.446;9.988;2023-08-06T09:11:30;19.50;1.00
16388;DHT22;8303;53.446;9.988;2023-08-06T09:14:06;19.60;99.90
16388;DHT22;8303;53.446;9.988;2023-08-06T09:16:34;19.70;1.00
16388;DHT22;8303;53.446;9.988;2023-08-06T09:19:07;19.80;99.90
16388;DHT22;8303;53.446;9.988;2023-08-06T09:21:37;19.60;19.10
16388;DHT22;8303;53.446;9.988;2023-08-06T09:24:08;19.60;1.00
16388;DHT22;8303;53.446;9.988;2023-08-06T09:26:38;19.50;1.00
16388;DHT22;8303;53.446;9.988;2023-08-06T09:29:09;19.70;99.90
16388;DHT22;8303;53.446;9.988;2023-08-06T09:31:41;19.80;1.00
16388;DHT22;8303;53.446;9.988;2023-08-06T09:34:12;19.90;99.90
16388;DHT22;8303;53.446;9.988;2023-08-06T09:36:41;19.60;1.00
16388;DHT22;8303;53.446;9.988;2023-08-06T09:39:16;19.60;99.90
16388;DHT22;8303;53.446;9.988;2023-08-06T09:41:45;19.80;1.00
16388;DHT22;8303;53.446;9.988;2023-08-06T09:44:16;19.80;1.00
16388;DHT22;8303;53.446;9.988;2023-08-06T09:46:47;20.00;1.00
16388;DHT22;8303;53.446;9.988;2023-08-06T09:49:14;19.70;1.00
16388;DHT22;8303;53.446;9.988;2023-08-06T09:51:41;19.60;99.90
16388;DHT22;8303;53.446;9.988;2023-08-06T09:54:12;19.50;1.00
16388;DHT22;8303;53.446;9.988;2023-08-06T09:56:43;19.60;95.40
16388;DHT22;8303;53.446;9.988;2023-08-06T09:59:10;19.60;1.00
16388;DHT22;8303;53.446;9.988;2023-08-06T10:01:37;19.60;99.90
16388;DHT22;8303;53.446;9.988;2023-08-06T10:04:05;19.60;99.90
16388;DHT22;8303;53.446;9.988;2023-08-06T10:06:35;19.60;1.00
16388;DHT22;8303;53.446;9.988;2023-08-06T10:09:02;19.50;99.90
16388;DHT22;8303;53.446;9.988;2023-08-06T10:11:30;19.40;1.00
16388;DHT22;8303;53.446;9.988;2023-08-06T10:14:05;19.40;99.90
16388;DHT22;8303;53.446;9.988;2023-08-06T10:16:34;19.30;1.00
16388;DHT22;8303;53.446;9.988;2023-08-06T10:19:02;19.20;1.00
16388;DHT22;8303;53.446;9.988;2023-08-06T10:21:30;19.30;1.00
16388;DHT22;8303;53.446;9.988;2023-08-06T10:23:58;19.40;1.00
16388;DHT22;8303;53.446;9.988;2023-08-06T10:26:28;19.40;99.90
16388;DHT22;8303;53.446;9.988;2023-08-06T10:28:55;19.20;1.00
16388;DHT22;8303;53.446;9.988;2023-08-06T10:31:54;19.00;1.00
16388;DHT22;8303;53.446;9.988;2023-08-06T10:34:21;19.00;1.00
16388;DHT22;8303;53.446;9.988;2023-08-06T10:36:48;19.00;86.50
16388;DHT22;8303;53.446;9.988;2023-08-06T10:39:16;18.90;99.90
16388;DHT22;8303;53.446;9.988;2023-08-06T10:41:43;19.10;99.90
16388;DHT22;8303;53.446;9.988;2023-08-06T10:44:11;19.00;99.90
16388;DHT22;8303;53.446;9.988;2023-08-06T10:46:38;19.10;99.90
16388;DHT22;8303;53.446;9.988;2023-08-06T10:49:11;19.20;99.90
16388;DHT22;8303;53.446;9.988;2023-08-06T10:51:40;19.30;99.90
16388;DHT22;8303;53.446;9.988;2023-08-06T10:54:13;19.10;99.90
16388;DHT22;8303;53.446;9.988;2023-08-06T10:56:41;19.20;99.90
16388;DHT22;8303;53.446;9.988;2023-08-06T10:59:10;19.40;99.90
16388;DHT22;8303;53.446;9.988;2023-08-06T11:01:38;19.00;1.00
16388;DHT22;8303;53.446;9.988;2023-08-06T11:04:06;19.00;99.90
16388;DHT22;8303;53.446;9.988;2023-08-06T11:06:34;19.20;99.90
16388;DHT22;8303;53.446;9.988;2023-08-06T11:09:01;19.30;1.00
16388;DHT22;8303;53.446;9.988;2023-08-06T11:11:28;19.30;1.00
16388;DHT22;8303;53.446;9.988;2023-08-06T11:13:55;19.30;1.00
16388;DHT22;8303;53.446;9.988;2023-08-06T11:16:23;19.30;10.10
16388;DHT22;8303;53.446;9.988;2023-08-06T11:18:51;19.00;1.00
16388;DHT22;8303;53.446;9.988;2023-08-06T11:21:20;19.00;1.00
16388;DHT22;8303;53.446;9.988;2023-08-06T11:23:49;19.00;1.00
16388;DHT22;8303;53.446;9.988;2023-08-06T11:26:19;19.00;1.00
16388;DHT22;8303;53.446;9.988;2023-08-06T11:28:46;19.20;1.00
16388;DHT22;8303;53.446;9.988;2023-08-06T11:31:19;19.30;99.90
16388;DHT22;8303;53.446;9.988;2023-08-06T11:33:46;19.20;1.00
16388;DHT22;8303;53.446;9.988;2023-08-06T11:36:13;19.30;1.00
16388;DHT22;8303;53.446;9.988;2023-08-06T11:38:40;19.40;26.30
16388;DHT22;8303;53.446;9.988;2023-08-06T11:41:08;19.30;1.00
16388;DHT22;8303;53.446;9.988;2023-08-06T11:43:35;19.40;1.00
16388;DHT22;8303;53.446;9.988;2023-08-06T11:46:02;19.60;1.00
16388;DHT22;8303;53.446;9.988;2023-08-06T11:48:29;19.70;1.00
16388;DHT22;8303;53.446;9.988;2023-08-06T11:50:56;19.50;1.00
16388;DHT22;8303;53.446;9.988;2023-08-06T11:53:27;19.40;1.00
16388;DHT22;8303;53.446;9.988;2023-08-06T11:55:55;19.40;1.00
16388;DHT22;8303;53.446;9.988;2023-08-06T11:58:24;19.50;99.90
16388;DHT22;8303;53.446;9.988;2023-08-06T12:00:50;19.50;1.00
16388;DHT22;8303;53.446;9.988;2023-08-06T12:03:19;19.60;1.00
16388;DHT22;8303;53.446;9.988;2023-08-06T12:05:46;19.40;1.00
16388;DHT22;8303;53.446;9.988;2023-08-06T12:08:13;19.50;1.00
16388;DHT22;8303;53.446;9.988;2023-08-06T12:10:40;19.70;1.00
16388;DHT22;8303;53.446;9.988;2023-08-06T12:13:07;19.70;99.90
16388;DHT22;8303;53.446;9.988;2023-08-06T12:15:35;19.80;1.00
16388;DHT22;8303;53.446;9.988;2023-08-06T12:18:02;19.80;1.00
16388;DHT22;8303;53.446;9.988;2023-08-06T12:20:29;19.90;99.90
16388;DHT22;8303;53.446;9.988;2023-08-06T12:22:56;19.90;99.90
16388;DHT22;8303;53.446;9.988;2023-08-06T12:25:23;19.80;99.90
16388;DHT22;8303;53.446;9.988;2023-08-06T12:27:50;19.90;99.90
16388;DHT22;8303;53.446;9.988;2023-08-06T12:30:17;19.60;1.00
16388;DHT22;8303;53.446;9.988;2023-08-06T12:32:45;19.80;1.00
16388;DHT22;8303;53.446;9.988;2023-08-06T12:35:12;20.10;1.00
16388;DHT22;8303;53.446;9.988;2023-08-06T12:37:39;20.00;81.20
16388;DHT22;8303;53.446;9.988;2023-08-06T12:40:08;19.90;1.00
16388;DHT22;8303;53.446;9.988;2023-08-06T12:42:35;20.00;1.00
16388;DHT22;8303;53.446;9.988;2023-08-06T12:45:02;20.20;99.90
16388;DHT22;8303;53.446;9.988;2023-08-06T12:47:29;20.40;1.00
16388;DHT22;8303;53.446;9.988;2023-08-06T12:49:57;20.40;1.00
16388;DHT22;8303;53.446;9.988;2023-08-06T12:52:24;20.60;1.00
16388;DHT22;8303;53.446;9.988;2023-08-06T12:54:51;20.90;99.90
16388;DHT22;8303;53.446;9.988;2023-08-06T12:57:17;20.80;1.00
16388;DHT22;8303;53.446;9.988;2023-08-06T12:59:44;21.00;1.00
16388;DHT22;8303;53.446;9.988;2023-08-06T13:02:11;21.20;6.20
16388;DHT22;8303;53.446;9.988;2023-08-06T13:04:38;21.00;99.90
16388;DHT22;8303;53.446;9.988;2023-08-06T13:07:06;21.00;99.90
16388;DHT22;8303;53.446;9.988;2023-08-06T13:09:33;21.00;99.90
16388;DHT22;8303;53.446;9.988;2023-08-06T13:12:00;21.10;1.00
16388;DHT22;8303;53.446;9.988;2023-08-06T13:14:31;21.00;1.00
16388;DHT22;8303;53.446;9.988;2023-08-06T13:16:58;21.10;1.00
16388;DHT22;8303;53.446;9.988;2023-08-06T13:19:25;20.80;1.00
16388;DHT22;8303;53.446;9.988;2023-08-06T13:21:59;20.70;1.00
16388;DHT22;8303;53.446;9.988;2023-08-06T13:24:29;20.90;1.00
16388;DHT22;8303;53.446;9.988;2023-08-06T13:26:56;20.70;1.00
16388;DHT22;8303;53.446;9.988;2023-08-06T13:29:23;20.60;1.00
16388;DHT22;8303;53.446;9.988;2023-08-06T13:31:50;20.80;1.00
16388;DHT22;8303;53.446;9.988;2023-08-06T13:34:17;21.00;1.00
16388;DHT22;8303;53.446;9.988;2023-08-06T13:36:44;20.70;1.00
16388;DHT22;8303;53.446;9.988;2023-08-06T13:39:11;20.80;1.00
16388;DHT22;8303;53.446;9.988;2023-08-06T13:41:39;20.90;99.90
16388;DHT22;8303;53.446;9.988;2023-08-06T13:44:06;20.50;99.90
16388;DHT22;8303;53.446;9.988;2023-08-06T13:46:33;20.50;1.00
16388;DHT22;8303;53.446;9.988;2023-08-06T13:49:00;20.50;1.00
16388;DHT22;8303;53.446;9.988;2023-08-06T13:51:27;20.30;1.00
16388;DHT22;8303;53.446;9.988;2023-08-06T13:53:54;20.10;1.00
16388;DHT22;8303;53.446;9.988;2023-08-06T13:56:23;20.50;1.00
16388;DHT22;8303;53.446;9.988;2023-08-06T13:58:51;20.70;1.00
16388;DHT22;8303;53.446;9.988;2023-08-06T14:01:18;20.90;1.00
16388;DHT22;8303;53.446;9.988;2023-08-06T14:03:45;21.20;1.00
16388;DHT22;8303;53.446;9.988;2023-08-06T14:06:12;21.40;1.00
16388;DHT22;8303;53.446;9.988;2023-08-06T14:08:39;21.30;1.00
16388;DHT22;8303;53.446;9.988;2023-08-06T14:11:06;20.70;1.00
16388;DHT22;8303;53.446;9.988;2023-08-06T14:13:33;20.70;1.00
16388;DHT22;8303;53.446;9.988;2023-08-06T14:16:01;20.80;1.00
16388;DHT22;8303;53.446;9.988;2023-08-06T14:18:28;20.60;1.00
16388;DHT22;8303;53.446;9.988;2023-08-06T14:20:55;20.30;1.00
16388;DHT22;8303;53.446;9.988;2023-08-06T14:23:22;20.20;25.10
16388;DHT22;8303;53.446;9.988;2023-08-06T14:25:49;20.30;99.90
16388;DHT22;8303;53.446;9.988;2023-08-06T14:28:16;20.40;1.00
16388;DHT22;8303;53.446;9.988;2023-08-06T14:30:43;20.40;1.00
16388;DHT22;8303;53.446;9.988;2023-08-06T14:33:11;20.50;1.00
16388;DHT22;8303;53.446;9.988;2023-08-06T14:35:38;20.70;1.00
16388;DHT22;8303;53.446;9.988;2023-08-06T14:38:05;20.60;1.00
16388;DHT22;8303;53.446;9.988;2023-08-06T14:40:32;20.40;1.00
16388;DHT22;8303;53.446;9.988;2023-08-06T14:43:03;20.40;1.00
16388;DHT22;8303;53.446;9.988;2023-08-06T14:45:30;20.30;1.00
16388;DHT22;8303;53.446;9.988;2023-08-06T14:47:57;20.40;3.10
16388;DHT22;8303;53.446;9.988;2023-08-06T14:50:25;20.40;1.00
16388;DHT22;8303;53.446;9.988;2023-08-06T14:52:52;20.40;1.00
16388;DHT22;8303;53.446;9.988;2023-08-06T14:55:24;20.30;1.00
16388;DHT22;8303;53.446;9.988;2023-08-06T14:57:51;20.40;1.00
16388;DHT22;8303;53.446;9.988;2023-08-06T15:00:18;20.40;99.90
16388;DHT22;8303;53.446;9.988;2023-08-06T15:02:45;20.10;1.00
16388;DHT22;8303;53.446;9.988;2023-08-06T15:05:12;19.60;1.00
16388;DHT22;8303;53.446;9.988;2023-08-06T15:07:40;19.10;1.00
16388;DHT22;8303;53.446;9.988;2023-08-06T15:10:08;18.70;1.00
16388;DHT22;8303;53.446;9.988;2023-08-06T15:12:34;18.60;1.00
16388;DHT22;8303;53.446;9.988;2023-08-06T15:15:02;18.30;1.00
16388;DHT22;8303;53.446;9.988;2023-08-06T15:17:29;18.40;1.00
16388;DHT22;8303;53.446;9.988;2023-08-06T15:19:56;18.30;99.90
16388;DHT22;8303;53.446;9.988;2023-08-06T15:22:24;18.10;1.00
16388;DHT22;8303;53.446;9.988;2023-08-06T15:24:52;17.90;1.00
16388;DHT22;8303;53.446;9.988;2023-08-06T15:27:19;17.90;99.90
16388;DHT22;8303;53.446;9.988;2023-08-06T15:29:46;17.90;99.90
16388;DHT22;8303;53.446;9.988;2023-08-06T15:32:13;17.90;1.00
16388;DHT22;8303;53.446;9.988;2023-08-06T15:34:40;18.00;99.90
16388;DHT22;8303;53.446;9.988;2023-08-06T15:37:07;18.10;1.00
16388;DHT22;8303;53.446;9.988;2023-08-06T15:39:34;18.10;1.00
16388;DHT22;8303;53.446;9.988;2023-08-06T15:42:03;18.10;99.90
16388;DHT22;8303;53.446;9.988;2023-08-06T15:44:30;18.10;99.90
16388;DHT22;8303;53.446;9.988;2023-08-06T15:46:57;18.10;99.90
16388;DHT22;8303;53.446;9.988;2023-08-06T15:49:24;18.20;99.90
16388;DHT22;8303;53.446;9.988;2023-08-06T15:51:50;18.30;1.00
16388;DHT22;8303;53.446;9.988;2023-08-06T15:54:18;18.20;99.90
16388;DHT22;8303;53.446;9.988;2023-08-06T15:56:45;18.40;99.90
16388;DHT22;8303;53.446;9.988;2023-08-06T15:59:24;18.50;99.90
16388;DHT22;8303;53.446;9.988;2023-08-06T16:01:51;18.50;1.00
16388;DHT22;8303;53.446;9.988;2023-08-06T16:04:18;18.50;1.00
16388;DHT22;8303;53.446;9.988;2023-08-06T16:06:45;18.60;1.00
16388;DHT22;8303;53.446;9.988;2023-08-06T16:09:12;18.50;99.90
16388;DHT22;8303;53.446;9.988;2023-08-06T16:11:40;18.50;99.90
16388;DHT22;8303;53.446;9.988;2023-08-06T16:14:08;18.30;1.00
16388;DHT22;8303;53.446;9.988;2023-08-06T16:16:36;18.30;1.00
16388;DHT22;8303;53.446;9.988;2023-08-06T16:19:03;18.30;1.00
16388;DHT22;8303;53.446;9.988;2023-08-06T16:21:30;18.30;99.90
16388;DHT22;8303;53.446;9.988;2023-08-06T16:23:57;18.30;99.90
16388;DHT22;8303;53.446;9.988;2023-08-06T16:26:24;18.30;99.90
16388;DHT22;8303;53.446;9.988;2023-08-06T16:28:51;18.40;99.90
16388;DHT22;8303;53.446;9.988;2023-08-06T16:31:18;18.40;94.00
16388;DHT22;8303;53.446;9.988;2023-08-06T16:33:46;18.40;99.90
16388;DHT22;8303;53.446;9.988;2023-08-06T16:36:14;18.40;84.30
16388;DHT22;8303;53.446;9.988;2023-08-06T16:38:40;18.50;68.80
16388;DHT22;8303;53.446;9.988;2023-08-06T16:41:08;18.40;99.90
16388;DHT22;8303;53.446;9.988;2023-08-06T16:43:34;18.40;99.90
16388;DHT22;8303;53.446;9.988;2023-08-06T16:46:01;18.40;99.90
16388;DHT22;8303;53.446;9.988;2023-08-06T16:48:29;18.50;99.90
16388;DHT22;8303;53.446;9.988;2023-08-06T16:51:00;18.50;99.90
16388;DHT22;8303;53.446;9.988;2023-08-06T16:53:27;18.40;99.90
16388;DHT22;8303;53.446;9.988;2023-08-06T16:55:54;18.40;99.90
16388;DHT22;8303;53.446;9.988;2023-08-06T16:58:22;18.30;99.90
16388;DHT22;8303;53.446;9.988;2023-08-06T17:00:50;18.40;1.00
16388;DHT22;8303;53.446;9.988;2023-08-06T17:03:18;18.40;99.90
16388;DHT22;8303;53.446;9.988;2023-08-06T17:05:45;18.40;99.90
16388;DHT22;8303;53.446;9.988;2023-08-06T17:08:13;18.40;99.90
16388;DHT22;8303;53.446;9.988;2023-08-06T17:10:40;18.40;99.90
16388;DHT22;8303;53.446;9.988;2023-08-06T17:13:07;18.30;1.00
16388;DHT22;8303;53.446;9.988;2023-08-06T17:15:34;18.30;93.90
16388;DHT22;8303;53.446;9.988;2023-08-06T17:18:01;18.30;1.00
16388;DHT22;8303;53.446;9.988;2023-08-06T17:20:28;18.20;99.90
16388;DHT22;8303;53.446;9.988;2023-08-06T17:22:55;18.30;1.00
16388;DHT22;8303;53.446;9.988;2023-08-06T17:25:23;18.30;99.90
16388;DHT22;8303;53.446;9.988;2023-08-06T17:27:50;18.30;99.90
16388;DHT22;8303;53.446;9.988;2023-08-06T17:30:17;18.20;66.40
16388;DHT22;8303;53.446;9.988;2023-08-06T17:32:44;18.20;32.60
16388;DHT22;8303;53.446;9.988;2023-08-06T17:35:11;18.20;99.90
16388;DHT22;8303;53.446;9.988;2023-08-06T17:37:38;18.20;1.00
16388;DHT22;8303;53.446;9.988;2023-08-06T17:40:07;18.30;99.90
16388;DHT22;8303;53.446;9.988;2023-08-06T17:42:35;18.20;58.40
16388;DHT22;8303;53.446;9.988;2023-08-06T17:45:03;18.20;99.90
16388;DHT22;8303;53.446;9.988;2023-08-06T17:47:30;18.20;99.90
16388;DHT22;8303;53.446;9.988;2023-08-06T17:49:57;18.20;99.90
16388;DHT22;8303;53.446;9.988;2023-08-06T17:52:24;18.20;99.90
16388;DHT22;8303;53.446;9.988;2023-08-06T17:54:51;18.10;99.90
16388;DHT22;8303;53.446;9.988;2023-08-06T17:57:18;18.00;1.00
16388;DHT22;8303;53.446;9.988;2023-08-06T17:59:46;17.90;1.00
16388;DHT22;8303;53.446;9.988;2023-08-06T18:02:13;17.90;99.90
16388;DHT22;8303;53.446;9.988;2023-08-06T18:04:40;17.90;99.90
16388;DHT22;8303;53.446;9.988;2023-08-06T18:07:07;17.90;99.90
16388;DHT22;8303;53.446;9.988;2023-08-06T18:09:34;17.90;1.00
16388;DHT22;8303;53.446;9.988;2023-08-06T18:12:01;17.90;82.80
16388;DHT22;8303;53.446;9.988;2023-08-06T18:14:28;17.90;1.00
16388;DHT22;8303;53.446;9.988;2023-08-06T18:16:56;17.90;1.00
16388;DHT22;8303;53.446;9.988;2023-08-06T18:19:23;17.80;1.00
16388;DHT22;8303;53.446;9.988;2023-08-06T18:21:50;17.80;1.00
16388;DHT22;8303;53.446;9.988;2023-08-06T18:24:17;17.80;1.00
16388;DHT22;8303;53.446;9.988;2023-08-06T18:26:44;17.80;1.00
16388;DHT22;8303;53.446;9.988;2023-08-06T18:29:11;17.80;1.00
16388;DHT22;8303;53.446;9.988;2023-08-06T18:31:38;17.80;1.00
16388;DHT22;8303;53.446;9.988;2023-08-06T18:34:06;17.80;1.00
16388;DHT22;8303;53.446;9.988;2023-08-06T18:36:34;17.80;1.00
16388;DHT22;8303;53.446;9.988;2023-08-06T18:39:01;17.70;1.00
16388;DHT22;8303;53.446;9.988;2023-08-06T18:41:28;17.70;1.00
16388;DHT22;8303;53.446;9.988;2023-08-06T18:43:54;17.70;1.00
16388;DHT22;8303;53.446;9.988;2023-08-06T18:46:21;17.60;1.00
16388;DHT22;8303;53.446;9.988;2023-08-06T18:48:48;17.60;60.10
16388;DHT22;8303;53.446;9.988;2023-08-06T18:51:17;17.60;1.00
16388;DHT22;8303;53.446;9.988;2023-08-06T18:53:45;17.60;1.00
16388;DHT22;8303;53.446;9.988;2023-08-06T18:56:12;17.60;1.00
16388;DHT22;8303;53.446;9.988;2023-08-06T18:58:39;17.50;54.80
16388;DHT22;8303;53.446;9.988;2023-08-06T19:01:06;17.50;69.50
16388;DHT22;8303;53.446;9.988;2023-08-06T19:03:33;17.50;1.00
16388;DHT22;8303;53.446;9.988;2023-08-06T19:06:01;17.50;1.00
16388;DHT22;8303;53.446;9.988;2023-08-06T19:08:31;17.50;1.00
16388;DHT22;8303;53.446;9.988;2023-08-06T19:10:58;17.50;1.00
16388;DHT22;8303;53.446;9.988;2023-08-06T19:13:25;17.50;1.00
16388;DHT22;8303;53.446;9.988;2023-08-06T19:15:52;17.50;1.00
16388;DHT22;8303;53.446;9.988;2023-08-06T19:18:18;17.40;1.00
16388;DHT22;8303;53.446;9.988;2023-08-06T19:20:45;17.40;1.00
16388;DHT22;8303;53.446;9.988;2023-08-06T19:23:14;17.40;1.00
16388;DHT22;8303;53.446;9.988;2023-08-06T19:25:44;17.20;1.00
16388;DHT22;8303;53.446;9.988;2023-08-06T19:28:12;17.20;44.50
16388;DHT22;8303;53.446;9.988;2023-08-06T19:30:42;17.10;1.00
16388;DHT22;8303;53.446;9.988;2023-08-06T19:33:10;17.10;1.00
16388;DHT22;8303;53.446;9.988;2023-08-06T19:35:46;17.00;1.00
16388;DHT22;8303;53.446;9.988;2023-08-06T19:38:13;16.90;99.90
16388;DHT22;8303;53.446;9.988;2023-08-06T19:40:40;16.90;99.90
16388;DHT22;8303;53.446;9.988;2023-08-06T19:43:09;16.90;99.90
16388;DHT22;8303;53.446;9.988;2023-08-06T19:45:36;16.80;1.00
16388;DHT22;8303;53.446;9.988;2023-08-06T19:48:04;16.90;1.00
16388;DHT22;8303;53.446;9.988;2023-08-06T19:50:31;16.80;1.00
16388;DHT22;8303;53.446;9.988;2023-08-06T19:52:58;16.80;1.00
16388;DHT22;8303;53.446;9.988;2023-08-06T19:55:25;16.80;1.00
16388;DHT22;8303;53.446;9.988;2023-08-06T19:57:52;16.80;1.00
16388;DHT22;8303;53.446;9.988;2023-08-06T20:00:21;16.80;1.00
16388;DHT22;8303;53.446;9.988;2023-08-06T20:02:48;16.70;1.00
16388;DHT22;8303;53.446;9.988;2023-08-06T20:05:15;16.70;1.00
16388;DHT22;8303;53.446;9.988;2023-08-06T20:07:42;16.70;1.00
16388;DHT22;8303;53.446;9.988;2023-08-06T20:10:09;16.70;1.00
16388;DHT22;8303;53.446;9.988;2023-08-06T20:12:36;16.70;1.00
16388;DHT22;8303;53.446;9.988;2023-08-06T20:15:04;16.70;1.00
16388;DHT22;8303;53.446;9.988;2023-08-06T20:17:32;16.70;1.00
16388;DHT22;8303;53.446;9.988;2023-08-06T20:19:59;16.70;1.00
16388;DHT22;8303;53.446;9.988;2023-08-06T20:22:26;16.70;1.00
16388;DHT22;8303;53.446;9.988;2023-08-06T20:24:53;16.70;1.00
16388;DHT22;8303;53.446;9.988;2023-08-06T20:27:20;16.70;1.00
16388;DHT22;8303;53.446;9.988;2023-08-06T20:29:47;16.70;1.00
